This is the latest recevied weather packets stored in our database for station/object N2RDT. If no packets are shown the sender has not sent any weather packets the latest 10 day(s).
| Time | Temp. | Humidity | Pressure | Rain* | Wind** | Luminosity | Snow |
|---|---|---|---|---|---|---|---|
| 1777832666 | 17.22° C | 32% | 1018.2 hPa | 0 mm | - | 929 W/m² | - |
| 1777832363 | 17.22° C | 33% | 1018.2 hPa | 0 mm | - | 934 W/m² | - |
| 1777832060 | 16.67° C | 30% | 1018.2 hPa | 0 mm | - | 939 W/m² | - |
| 1777831756 | 17.22° C | 33% | 1018.2 hPa | 0 mm | - | 944 W/m² | - |
| 1777831454 | 17.22° C | 29% | 1018.1 hPa | 0 mm | - | 951 W/m² | - |
| 1777831150 | 16.67° C | 31% | 1018.5 hPa | 0 mm | - | 953 W/m² | - |
| 1777830849 | 16.67° C | 33% | 1018.5 hPa | 0 mm | - | 959 W/m² | - |
| 1777830544 | 16.11° C | 35% | 1018.5 hPa | 0 mm | - | 962 W/m² | - |
| 1777830243 | 16.11° C | 35% | 1018.6 hPa | 0 mm | - | 966 W/m² | - |
| 1777829943 | 16.67° C | 35% | 1018.5 hPa | 0 mm | - | 971 W/m² | - |
| 1777829639 | 15.56° C | 35% | 1018.7 hPa | 0 mm | - | 973 W/m² | - |
| 1777829336 | 15.56° C | 34% | 1018.5 hPa | 0 mm | - | 975 W/m² | - |
| 1777829034 | 16.11° C | 35% | 1018.6 hPa | 0 mm | - | 977 W/m² | - |
| 1777828729 | 15.56° C | 35% | 1018.7 hPa | 0 mm | - | 978 W/m² | - |
| 1777828426 | 15.56° C | 34% | 1018.7 hPa | 0 mm | - | 978 W/m² | - |
| 1777828124 | 15.56° C | 36% | 1018.9 hPa | 0 mm | - | 979 W/m² | - |
| 1777827820 | 15.56° C | 41% | 1019.1 hPa | 0 mm | - | 978 W/m² | - |
| 1777827517 | 15° C | 35% | 1018.8 hPa | 0 mm | - | 975 W/m² | - |
| 1777827215 | 15.56° C | 35% | 1019.2 hPa | 0 mm | - | 974 W/m² | - |
| 1777826911 | 15.56° C | 35% | 1019.2 hPa | 0 mm | - | 972 W/m² | - |
| 1777826609 | 15.56° C | 35% | 1019.3 hPa | 0 mm | - | 970 W/m² | - |
| 1777826304 | 15.56° C | 36% | 1019.2 hPa | 0 mm | - | 966 W/m² | - |
| 1777826003 | 15° C | 38% | 1019.2 hPa | 0 mm | - | 963 W/m² | - |
| 1777825699 | 15° C | 36% | 1019.2 hPa | 0 mm | - | 957 W/m² | - |
| 1777825397 | 15.56° C | 39% | 1019.4 hPa | 0 mm | - | 951 W/m² | - |
* Rain latest hour (hover to see other rain measurements)
** Current wind speed in m/s (hover to see current wind gust speed)